createdAt,value
2018-01-25T00:00:24.895Z,12.15
2018-01-25T00:02:52.075Z,12.82
2018-01-25T00:05:19.098Z,11.32
2018-01-25T00:07:46.171Z,11.05
2018-01-25T00:10:12.380Z,16.55
2018-01-25T00:12:39.681Z,12.57
2018-01-25T00:15:07.795Z,17.27
2018-01-25T00:17:34.905Z,16.95
2018-01-25T00:20:02.956Z,11.65
2018-01-25T00:22:30.845Z,8.80
2018-01-25T00:24:57.106Z,11.85
2018-01-25T00:27:24.366Z,13.40
2018-01-25T00:29:51.349Z,10.52
2018-01-25T00:32:18.351Z,6.60
2018-01-25T00:34:44.593Z,11.50
2018-01-25T00:37:10.801Z,7.93
2018-01-25T00:39:38.697Z,9.93
2018-01-25T00:42:05.786Z,10.18
2018-01-25T00:44:32.337Z,9.00
2018-01-25T00:46:59.761Z,10.52
2018-01-25T00:49:26.203Z,11.88
2018-01-25T00:51:52.402Z,17.10
2018-01-25T00:54:20.693Z,11.15
2018-01-25T00:56:47.893Z,11.50
2018-01-25T00:59:15.063Z,10.40
2018-01-25T01:01:43.226Z,10.90
2018-01-25T01:04:11.206Z,8.18
2018-01-25T01:06:37.461Z,7.05
2018-01-25T01:09:04.692Z,8.98
2018-01-25T01:11:30.899Z,6.82
2018-01-25T01:13:58.494Z,8.85
2018-01-25T01:16:25.217Z,7.40
2018-01-25T01:18:52.186Z,5.70
2018-01-25T01:21:19.200Z,6.72
2018-01-25T01:23:45.625Z,7.07
2018-01-25T01:26:13.209Z,26.05
2018-01-25T01:28:39.953Z,13.02
2018-01-25T01:31:07.132Z,8.93
2018-01-25T01:33:34.761Z,7.90
2018-01-25T01:36:01.803Z,6.53
2018-01-25T01:38:28.640Z,7.28
2018-01-25T01:40:56.312Z,6.32
2018-01-25T01:43:23.175Z,6.25
2018-01-25T01:45:50.145Z,7.05
2018-01-25T01:48:17.782Z,7.18
2018-01-25T01:50:43.995Z,4.82
2018-01-25T01:53:10.400Z,5.78
2018-01-25T01:55:37.515Z,5.70
2018-01-25T01:58:04.731Z,7.30
2018-01-25T02:00:33.158Z,6.00
2018-01-25T02:03:00.664Z,5.35
2018-01-25T02:05:27.407Z,5.40
2018-01-25T02:07:53.631Z,5.80
2018-01-25T02:10:20.439Z,6.70
2018-01-25T02:12:47.695Z,5.87
2018-01-25T02:15:15.676Z,5.37
2018-01-25T02:17:41.902Z,7.00
2018-01-25T02:20:08.810Z,6.35
2018-01-25T02:22:36.018Z,5.37
2018-01-25T02:25:04.096Z,4.72
2018-01-25T02:27:31.142Z,6.05
2018-01-25T02:29:57.445Z,5.22
2018-01-25T02:32:23.921Z,5.65
2018-01-25T02:34:50.910Z,4.72
2018-01-25T02:37:17.665Z,6.05
2018-01-25T02:39:44.703Z,4.47
2018-01-25T02:42:10.994Z,3.97
2018-01-25T02:44:37.913Z,4.57
2018-01-25T02:47:05.193Z,5.00
2018-01-25T02:49:31.423Z,5.28
2018-01-25T02:51:57.653Z,4.25
2018-01-25T02:54:25.269Z,3.92
2018-01-25T02:56:51.661Z,4.25
2018-01-25T02:59:18.756Z,6.03
2018-01-25T03:01:44.998Z,5.60
2018-01-25T03:04:11.913Z,4.37
2018-01-25T03:06:38.729Z,6.03
2018-01-25T03:09:04.949Z,8.48
2018-01-25T03:11:32.467Z,5.10
2018-01-25T03:13:58.679Z,4.55
2018-01-25T03:16:25.193Z,5.30
2018-01-25T03:18:52.222Z,4.70
2018-01-25T03:21:19.108Z,7.97
2018-01-25T03:23:45.315Z,8.65
2018-01-25T03:26:11.523Z,5.25
2018-01-25T03:28:38.077Z,6.40
2018-01-25T03:31:06.074Z,6.22
2018-01-25T03:33:32.260Z,7.97
2018-01-25T03:35:59.479Z,9.43
2018-01-25T03:38:27.250Z,5.55
2018-01-25T03:40:54.260Z,7.15
2018-01-25T03:43:21.017Z,6.65
2018-01-25T03:45:47.283Z,11.27
2018-01-25T03:48:13.511Z,7.78
2018-01-25T03:50:40.630Z,8.43
2018-01-25T03:53:08.806Z,5.62
2018-01-25T03:55:36.420Z,7.20
2018-01-25T03:58:03.303Z,8.40
2018-01-25T04:00:30.311Z,9.40
2018-01-25T04:02:56.774Z,6.45
2018-01-25T04:05:23.906Z,5.62
2018-01-25T04:07:50.176Z,5.28
2018-01-25T04:10:16.969Z,7.68
2018-01-25T04:12:43.158Z,5.90
2018-01-25T04:15:09.396Z,6.28
2018-01-25T04:17:35.821Z,4.50
2018-01-25T04:20:02.140Z,4.85
2018-01-25T04:22:29.078Z,6.22
2018-01-25T04:24:56.847Z,5.10
2018-01-25T04:27:23.891Z,7.97
2018-01-25T04:29:51.554Z,6.87
2018-01-25T04:32:18.692Z,6.62
2018-01-25T04:34:45.634Z,5.97
2018-01-25T04:37:12.420Z,6.78
2018-01-25T04:39:39.847Z,7.07
2018-01-25T04:42:07.595Z,6.28
2018-01-25T04:44:34.531Z,7.15
2018-01-25T04:47:01.347Z,6.97
2018-01-25T04:49:28.141Z,6.53
2018-01-25T04:51:54.615Z,6.85
2018-01-25T04:54:20.875Z,6.18
2018-01-25T04:56:47.072Z,7.22
2018-01-25T04:59:13.289Z,5.25
2018-01-25T05:01:40.051Z,4.57
2018-01-25T05:04:06.619Z,9.65
2018-01-25T05:06:34.399Z,5.62
2018-01-25T05:09:02.402Z,4.93
2018-01-25T05:11:29.282Z,6.30
2018-01-25T05:13:55.529Z,5.50
2018-01-25T05:16:22.504Z,10.52
2018-01-25T05:18:48.826Z,5.80
2018-01-25T05:21:20.938Z,6.00
2018-01-25T05:23:47.866Z,7.72
2018-01-25T05:26:14.068Z,5.80
2018-01-25T05:28:41.286Z,6.00
2018-01-25T05:31:08.878Z,9.50
2018-01-25T05:33:35.118Z,7.10
2018-01-25T05:36:01.358Z,7.72
2018-01-25T05:38:27.965Z,7.57
2018-01-25T05:40:54.984Z,5.28
2018-01-25T05:43:22.014Z,6.70
2018-01-25T05:45:48.667Z,6.20
2018-01-25T05:48:15.619Z,6.35
2018-01-25T05:50:42.874Z,5.68
2018-01-25T05:53:09.967Z,7.85
2018-01-25T05:55:37.072Z,11.38
2018-01-25T05:58:04.562Z,9.93
2018-01-25T06:00:30.841Z,8.60
2018-01-25T06:02:57.457Z,8.77
2018-01-25T06:05:23.835Z,15.75
2018-01-25T06:07:50.874Z,13.55
2018-01-25T06:10:17.852Z,10.45
2018-01-25T06:12:44.394Z,9.75
2018-01-25T06:15:10.674Z,11.32
2018-01-25T06:17:37.678Z,9.95
2018-01-25T06:20:04.067Z,12.80
2018-01-25T06:22:31.519Z,15.20
2018-01-25T06:24:57.983Z,17.27
2018-01-25T06:27:25.024Z,17.55
2018-01-25T06:29:51.613Z,16.62
2018-01-25T06:32:18.659Z,13.73
2018-01-25T06:34:45.464Z,13.32
2018-01-25T06:37:11.661Z,18.45
2018-01-25T06:39:37.845Z,17.08
2018-01-25T06:42:04.694Z,26.62
2018-01-25T06:44:31.468Z,19.42
2018-01-25T06:46:58.248Z,15.70
2018-01-25T06:49:25.269Z,19.73
2018-01-25T06:51:53.129Z,19.60
2018-01-25T06:54:20.150Z,15.43
2018-01-25T06:56:47.187Z,14.45
2018-01-25T06:59:13.371Z,15.38
2018-01-25T07:01:39.905Z,11.25
2018-01-25T07:04:07.199Z,14.77
2018-01-25T07:06:34.582Z,19.80
2018-01-25T07:09:02.395Z,15.32
2018-01-25T07:11:28.775Z,11.98
2018-01-25T07:13:56.491Z,23.75
2018-01-25T07:16:23.281Z,15.02
2018-01-25T07:18:49.769Z,15.65
2018-01-25T07:21:16.759Z,12.48
2018-01-25T07:23:43.009Z,13.32
2018-01-25T07:26:10.160Z,12.98
2018-01-25T07:28:37.617Z,14.40
2018-01-25T07:31:04.334Z,15.82
2018-01-25T07:33:30.554Z,14.15
2018-01-25T07:35:58.102Z,13.50
2018-01-25T07:38:25.251Z,18.35
2018-01-25T07:40:52.546Z,18.62
2018-01-25T07:43:20.068Z,20.50
2018-01-25T07:45:47.342Z,18.05
2018-01-25T07:48:14.699Z,15.23
2018-01-25T07:50:40.925Z,15.00
2018-01-25T07:53:07.174Z,19.25
2018-01-25T07:55:33.548Z,16.95
2018-01-25T07:58:15.219Z,13.10
2018-01-25T08:00:42.774Z,17.55
2018-01-25T08:03:09.967Z,26.05
2018-01-25T08:05:36.960Z,24.45
2018-01-25T08:08:03.613Z,18.10
2018-01-25T08:10:30.944Z,24.48
2018-01-25T08:13:04.085Z,19.27
2018-01-25T08:15:31.836Z,19.50
2018-01-25T08:17:58.038Z,17.90
2018-01-25T08:20:24.254Z,13.50
2018-01-25T08:22:51.014Z,18.67
2018-01-25T08:25:17.884Z,17.08
2018-01-25T08:27:45.258Z,20.55
2018-01-25T08:30:12.327Z,17.25
2018-01-25T08:32:39.180Z,17.15
2018-01-25T08:35:05.958Z,26.67
2018-01-25T08:37:33.443Z,17.90
2018-01-25T08:40:00.119Z,17.95
2018-01-25T08:42:27.380Z,17.15
2018-01-25T08:44:54.767Z,17.02
2018-01-25T08:47:21.488Z,16.42
2018-01-25T08:49:49.376Z,16.85
2018-01-25T08:52:16.358Z,16.80
2018-01-25T08:54:42.579Z,14.75
2018-01-25T08:57:09.004Z,11.15
2018-01-25T08:59:36.255Z,14.13
2018-01-25T09:02:02.585Z,17.15
2018-01-25T09:04:29.848Z,16.65
2018-01-25T09:06:56.144Z,15.32
2018-01-25T09:09:23.126Z,17.12
2018-01-25T09:11:49.948Z,26.15
2018-01-25T09:14:16.205Z,25.80
2018-01-25T09:16:42.995Z,22.23
2018-01-25T09:19:10.084Z,19.70
2018-01-25T09:21:36.328Z,20.00
2018-01-25T09:24:03.219Z,25.60
2018-01-25T09:26:31.280Z,20.35
2018-01-25T09:28:57.633Z,25.65
2018-01-25T09:31:25.165Z,22.37
2018-01-25T09:33:51.932Z,23.10
2018-01-25T09:36:18.918Z,19.98
2018-01-25T09:38:45.109Z,26.25
2018-01-25T09:41:11.358Z,23.23
2018-01-25T09:43:37.670Z,20.55
2018-01-25T09:46:04.441Z,24.10
2018-01-25T09:48:30.677Z,24.60
2018-01-25T09:50:56.893Z,20.23
2018-01-25T09:53:24.129Z,17.85
2018-01-25T09:55:51.498Z,15.98
2018-01-25T09:58:19.074Z,13.52
2018-01-25T10:00:45.807Z,11.57
2018-01-25T10:03:13.986Z,13.52
2018-01-25T10:05:40.847Z,11.25
2018-01-25T10:08:07.394Z,10.30
2018-01-25T10:10:34.567Z,11.43
2018-01-25T10:13:01.640Z,10.38
2018-01-25T10:15:27.972Z,10.07
2018-01-25T10:17:54.724Z,9.85
2018-01-25T10:20:21.357Z,10.45
2018-01-25T10:22:47.593Z,10.15
2018-01-25T10:25:13.875Z,10.85
2018-01-25T10:27:41.300Z,10.77
2018-01-25T10:30:08.435Z,10.50
2018-01-25T10:32:36.796Z,11.45
2018-01-25T10:35:03.058Z,10.18
2018-01-25T10:37:29.494Z,11.65
2018-01-25T10:39:57.094Z,9.77
2018-01-25T10:42:23.326Z,12.80
2018-01-25T10:44:50.758Z,10.68
2018-01-25T10:47:17.709Z,9.38
2018-01-25T10:49:44.674Z,8.55
2018-01-25T10:52:12.375Z,10.10
2018-01-25T10:54:38.619Z,16.12
2018-01-25T10:57:06.336Z,11.77
2018-01-25T10:59:32.554Z,13.30
2018-01-25T11:02:04.977Z,11.82
2018-01-25T11:04:31.367Z,9.05
2018-01-25T11:06:57.562Z,8.63
2018-01-25T11:09:24.526Z,11.15
2018-01-25T11:11:50.739Z,10.20
2018-01-25T11:14:18.025Z,17.48
2018-01-25T11:16:46.084Z,12.68
2018-01-25T11:19:13.108Z,14.45
2018-01-25T11:21:40.075Z,10.35
2018-01-25T11:24:07.515Z,10.73
2018-01-25T11:26:35.693Z,9.07
2018-01-25T11:29:02.157Z,9.95
2018-01-25T11:31:29.213Z,9.55
2018-01-25T11:33:55.414Z,10.27
2018-01-25T11:36:22.015Z,8.30
2018-01-25T11:38:49.715Z,8.20
2018-01-25T11:41:15.933Z,8.98
2018-01-25T11:43:42.160Z,6.78
2018-01-25T11:46:08.366Z,7.28
2018-01-25T11:48:36.359Z,6.57
2018-01-25T11:51:03.149Z,6.70
2018-01-25T11:53:29.392Z,6.35
2018-01-25T11:55:56.345Z,6.03
2018-01-25T11:58:23.644Z,7.90
2018-01-25T12:00:50.618Z,13.40
2018-01-25T12:03:17.345Z,8.10
2018-01-25T12:05:44.264Z,8.00
2018-01-25T12:08:11.618Z,6.30
2018-01-25T12:10:38.778Z,8.00
2018-01-25T12:13:05.593Z,9.30
2018-01-25T12:15:31.814Z,9.47
2018-01-25T12:17:58.630Z,7.95
2018-01-25T12:20:25.523Z,11.40
2018-01-25T12:22:52.477Z,10.13
2018-01-25T12:25:19.964Z,10.35
2018-01-25T12:27:46.461Z,9.57
2018-01-25T12:30:13.317Z,20.90
2018-01-25T12:32:39.766Z,10.65
2018-01-25T12:35:06.080Z,9.95
2018-01-25T12:37:32.463Z,8.60
2018-01-25T12:39:58.832Z,7.62
2018-01-25T12:42:25.073Z,9.57
2018-01-25T12:44:52.003Z,7.10
2018-01-25T12:47:18.575Z,7.40
2018-01-25T12:49:45.546Z,8.55
2018-01-25T12:52:11.798Z,7.45
2018-01-25T12:54:38.020Z,9.90
2018-01-25T12:57:04.632Z,7.73
2018-01-25T12:59:31.720Z,5.67
2018-01-25T13:01:58.477Z,9.90
2018-01-25T13:04:24.705Z,6.00
2018-01-25T13:06:51.303Z,6.20
2018-01-25T13:09:18.068Z,5.00
2018-01-25T13:11:44.253Z,5.60
2018-01-25T13:14:12.165Z,8.07
2018-01-25T13:16:39.439Z,5.40
2018-01-25T13:19:06.139Z,5.87
2018-01-25T13:21:32.783Z,5.82
2018-01-25T13:23:59.842Z,6.20
2018-01-25T13:26:26.294Z,5.77
2018-01-25T13:28:53.056Z,6.27
2018-01-25T13:31:20.117Z,6.13
2018-01-25T13:33:47.866Z,5.60
2018-01-25T13:36:16.094Z,6.78
2018-01-25T13:38:42.711Z,7.12
2018-01-25T13:41:09.648Z,6.68
2018-01-25T13:43:35.885Z,7.47
2018-01-25T13:46:02.652Z,6.00
2018-01-25T13:48:28.924Z,6.78
2018-01-25T13:50:55.165Z,7.30
2018-01-25T13:53:23.076Z,5.82
2018-01-25T13:55:50.430Z,6.43
2018-01-25T13:58:17.443Z,6.17
2018-01-25T14:00:44.400Z,6.47
2018-01-25T14:03:11.450Z,6.68
2018-01-25T14:05:38.597Z,5.80
2018-01-25T14:08:04.844Z,7.22
2018-01-25T14:10:31.332Z,8.23
2018-01-25T14:12:58.378Z,6.22
2018-01-25T14:15:24.625Z,6.50
2018-01-25T14:17:51.453Z,26.25
2018-01-25T14:20:19.223Z,11.60
2018-01-25T14:22:46.011Z,19.30
2018-01-25T14:25:12.753Z,19.52
2018-01-25T14:27:39.092Z,11.68
2018-01-25T14:30:05.491Z,15.93
2018-01-25T14:32:32.385Z,14.50
2018-01-25T14:34:58.617Z,16.25
2018-01-25T14:37:26.214Z,16.55
2018-01-25T14:39:52.617Z,14.40
2018-01-25T14:42:20.324Z,14.73
2018-01-25T14:44:47.581Z,17.70
2018-01-25T14:47:14.310Z,13.27
2018-01-25T14:49:40.669Z,13.02
2018-01-25T14:52:07.450Z,14.18
2018-01-25T14:54:34.734Z,16.73
2018-01-25T14:57:01.058Z,14.13
2018-01-25T14:59:27.287Z,12.73
2018-01-25T15:01:54.011Z,16.77
2018-01-25T15:04:20.755Z,19.23
2018-01-25T15:06:47.526Z,13.07
2018-01-25T15:09:14.740Z,12.63
2018-01-25T15:11:41.767Z,13.98
2018-01-25T15:14:08.984Z,16.85
2018-01-25T15:16:36.515Z,19.15
2018-01-25T15:19:02.913Z,19.95
2018-01-25T15:21:29.982Z,14.20
2018-01-25T15:23:56.203Z,15.40
2018-01-25T15:26:22.959Z,13.98
2018-01-25T15:28:49.163Z,14.23
2018-01-25T15:31:16.157Z,12.20
2018-01-25T15:33:42.362Z,16.50
2018-01-25T15:36:08.650Z,18.08
2018-01-25T15:38:35.190Z,17.95
2018-01-25T15:41:03.178Z,23.20
2018-01-25T15:43:30.075Z,28.20
2018-01-25T15:45:57.623Z,32.22
2018-01-25T15:48:24.175Z,31.02
2018-01-25T15:50:51.928Z,27.33
2018-01-25T15:53:19.029Z,23.85
2018-01-25T15:55:45.927Z,17.98
2018-01-25T15:58:14.277Z,12.55
2018-01-25T16:00:40.547Z,13.35
2018-01-25T16:03:08.017Z,13.30
2018-01-25T16:05:35.154Z,13.30
2018-01-25T16:08:02.049Z,15.77
2018-01-25T16:10:29.363Z,13.35
2018-01-25T16:12:56.441Z,14.13
2018-01-25T16:15:22.677Z,15.10
2018-01-25T16:17:49.544Z,14.77
2018-01-25T16:20:16.882Z,19.50
2018-01-25T16:22:43.091Z,21.92
2018-01-25T16:25:09.971Z,28.58
2018-01-25T16:27:36.444Z,24.85
2018-01-25T16:30:03.558Z,34.05
2018-01-25T16:32:31.232Z,37.25
2018-01-25T16:34:58.698Z,52.30
2018-01-25T16:37:29.049Z,67.47
2018-01-25T16:39:56.916Z,51.60
2018-01-25T16:42:23.342Z,36.80
2018-01-25T16:44:53.860Z,45.22
2018-01-25T16:47:21.501Z,26.02
2018-01-25T16:49:48.215Z,17.80
2018-01-25T16:52:15.332Z,26.12
2018-01-25T16:54:42.070Z,25.95
2018-01-25T16:57:08.294Z,20.83
2018-01-25T16:59:35.019Z,17.90
2018-01-25T17:02:02.021Z,24.02
2018-01-25T17:04:28.895Z,29.95
2018-01-25T17:06:56.608Z,27.80
2018-01-25T17:09:24.285Z,22.90
2018-01-25T17:11:51.492Z,26.90
2018-01-25T17:14:17.949Z,32.70
2018-01-25T17:16:45.118Z,19.70
2018-01-25T17:19:11.404Z,20.02
2018-01-25T17:21:37.646Z,25.35
2018-01-25T17:24:03.913Z,27.15
2018-01-25T17:26:30.182Z,43.90
2018-01-25T17:28:57.387Z,48.30
2018-01-25T17:31:24.403Z,46.78
2018-01-25T17:33:51.173Z,40.03
2018-01-25T17:36:17.967Z,40.58
2018-01-25T17:38:44.247Z,36.85
2018-01-25T17:41:10.636Z,39.25
2018-01-25T17:43:37.693Z,22.35
2018-01-25T17:46:03.938Z,28.30
2018-01-25T17:48:31.174Z,32.30
2018-01-25T17:50:57.402Z,27.60
2018-01-25T17:53:23.631Z,38.15
2018-01-25T17:55:49.879Z,39.08
2018-01-25T17:58:16.371Z,53.75
2018-01-25T18:00:43.954Z,31.80
2018-01-25T18:03:11.002Z,45.53
2018-01-25T18:05:37.707Z,33.15
2018-01-25T18:08:05.215Z,35.92
2018-01-25T18:10:32.955Z,27.17
2018-01-25T18:12:59.163Z,23.10
2018-01-25T18:15:26.969Z,28.95
2018-01-25T18:17:53.954Z,27.27
2018-01-25T18:20:20.426Z,22.77
2018-01-25T18:22:47.320Z,24.42
2018-01-25T18:25:13.627Z,33.15
2018-01-25T18:27:40.813Z,31.85
2018-01-25T18:30:07.827Z,28.08
2018-01-25T18:32:34.147Z,31.45
2018-01-25T18:35:00.417Z,35.58
2018-01-25T18:37:27.531Z,52.97
2018-01-25T18:39:54.709Z,34.47
2018-01-25T18:42:21.791Z,33.45
2018-01-25T18:44:48.059Z,36.00
2018-01-25T18:47:14.280Z,28.65
2018-01-25T18:49:41.052Z,29.27
2018-01-25T18:52:08.041Z,36.38
2018-01-25T18:54:34.861Z,35.72
2018-01-25T18:57:02.302Z,36.55
2018-01-25T18:59:29.478Z,54.08
2018-01-25T19:01:55.905Z,43.65
2018-01-25T19:04:22.679Z,36.78
2018-01-25T19:06:49.855Z,38.30
2018-01-25T19:09:16.104Z,32.65
2018-01-25T19:11:43.004Z,28.80
2018-01-25T19:14:09.951Z,30.42
2018-01-25T19:16:37.022Z,33.97
2018-01-25T19:19:03.281Z,27.17
2018-01-25T19:21:30.177Z,26.10
2018-01-25T19:23:56.599Z,27.35
2018-01-25T19:26:22.889Z,24.40
2018-01-25T19:28:49.939Z,28.90
2018-01-25T19:31:16.275Z,27.17
2018-01-25T19:33:43.132Z,27.48
2018-01-25T19:36:09.468Z,21.50
2018-01-25T19:38:35.873Z,19.50
2018-01-25T19:41:02.823Z,23.33
2018-01-25T19:43:29.927Z,25.08
2018-01-25T19:45:57.194Z,23.80
2018-01-25T19:48:23.433Z,27.80
2018-01-25T19:50:50.389Z,22.92
2018-01-25T19:53:17.560Z,21.50
2018-01-25T19:55:44.802Z,21.12
2018-01-25T19:58:11.012Z,21.12
2018-01-25T20:00:38.098Z,24.02
2018-01-25T20:03:05.511Z,25.33
2018-01-25T20:05:32.515Z,26.23
2018-01-25T20:07:59.166Z,26.90
2018-01-25T20:10:26.734Z,26.10
2018-01-25T20:12:52.945Z,26.23
2018-01-25T20:15:20.151Z,22.67
2018-01-25T20:17:55.888Z,21.30
2018-01-25T20:20:22.857Z,19.58
2018-01-25T20:22:50.099Z,20.80
2018-01-25T20:25:16.490Z,23.25
2018-01-25T20:27:43.224Z,28.10
2018-01-25T20:30:10.173Z,28.60
2018-01-25T20:32:37.391Z,24.02
2018-01-25T20:35:04.835Z,24.33
2018-01-25T20:37:31.635Z,21.05
2018-01-25T20:39:59.244Z,22.05
2018-01-25T20:42:25.988Z,21.15
2018-01-25T20:44:52.950Z,20.02
2018-01-25T20:47:19.665Z,19.05
2018-01-25T20:49:46.114Z,20.05
2018-01-25T20:52:13.277Z,18.37
2018-01-25T20:54:39.623Z,19.00
2018-01-25T20:57:06.687Z,20.92
2018-01-25T20:59:40.989Z,17.58
2018-01-25T21:02:08.313Z,18.42
2018-01-25T21:04:34.559Z,16.55
2018-01-25T21:07:01.305Z,19.02
2018-01-25T21:09:27.881Z,16.83
2018-01-25T21:11:54.453Z,17.20
2018-01-25T21:14:22.244Z,20.42
2018-01-25T21:16:49.333Z,22.80
2018-01-25T21:19:15.558Z,23.80
2018-01-25T21:21:42.519Z,23.58
2018-01-25T21:24:08.752Z,18.75
2018-01-25T21:26:34.970Z,26.45
2018-01-25T21:29:01.283Z,36.50
2018-01-25T21:31:28.253Z,34.65
2018-01-25T21:33:55.585Z,33.85
2018-01-25T21:36:22.568Z,36.22
2018-01-25T21:38:48.860Z,33.67
2018-01-25T21:41:15.830Z,42.80
2018-01-25T21:43:42.148Z,34.92
2018-01-25T21:46:09.998Z,30.40
2018-01-25T21:48:37.628Z,42.05
2018-01-25T21:51:04.461Z,39.58
2018-01-25T21:53:30.680Z,33.85
2018-01-25T21:55:57.079Z,25.48
2018-01-25T21:58:24.662Z,29.73
2018-01-25T22:00:50.933Z,33.67
2018-01-25T22:03:17.886Z,39.15
2018-01-25T22:05:45.387Z,42.95
2018-01-25T22:08:11.603Z,34.15
2018-01-25T22:10:38.921Z,29.87
2018-01-25T22:13:05.942Z,27.27
2018-01-25T22:15:32.728Z,28.52
2018-01-25T22:17:58.959Z,30.85
2018-01-25T22:20:26.657Z,29.83
2018-01-25T22:22:53.713Z,25.33
2018-01-25T22:25:19.915Z,31.60
2018-01-25T22:27:46.137Z,29.70
2018-01-25T22:30:12.423Z,39.90
2018-01-25T22:32:40.385Z,36.53
2018-01-25T22:35:08.640Z,34.13
2018-01-25T22:37:35.170Z,35.47
2018-01-25T22:40:01.820Z,32.42
2018-01-25T22:42:29.442Z,29.37
2018-01-25T22:44:55.641Z,26.35
2018-01-25T22:47:22.598Z,31.98
2018-01-25T22:49:49.751Z,35.65
2018-01-25T22:52:16.771Z,34.33
2018-01-25T22:54:43.622Z,46.88
2018-01-25T22:57:10.577Z,46.28
2018-01-25T22:59:37.060Z,45.30
2018-01-25T23:02:04.041Z,27.25
2018-01-25T23:04:31.003Z,23.15
2018-01-25T23:06:57.215Z,26.77
2018-01-25T23:09:24.186Z,22.40
2018-01-25T23:11:50.402Z,25.35
2018-01-25T23:14:17.315Z,25.17
2018-01-25T23:16:44.065Z,25.65
2018-01-25T23:19:11.034Z,28.40
2018-01-25T23:21:37.214Z,24.48
2018-01-25T23:24:04.007Z,25.50
2018-01-25T23:26:30.217Z,27.08
2018-01-25T23:28:57.202Z,24.67
2018-01-25T23:31:24.081Z,26.40
2018-01-25T23:33:50.923Z,23.45
2018-01-25T23:36:17.350Z,24.75
2018-01-25T23:38:45.358Z,16.85
2018-01-25T23:41:11.647Z,21.95
2018-01-25T23:43:37.995Z,24.75
2018-01-25T23:46:04.250Z,22.75
2018-01-25T23:48:30.542Z,22.52
2018-01-25T23:50:57.323Z,28.33
2018-01-25T23:53:24.109Z,22.83
2018-01-25T23:55:50.452Z,25.48
2018-01-25T23:58:16.640Z,28.00
